Time;durP1;ratioP1;P1;durP2;ratioP2;P2;SDS_P1;SDS_P2;PMS_P1;PMS_P2;Temp;Humidity;BMP_temperature;BMP_pressure;BME280_temperature;BME280_humidity;BME280_pressure;Samples;Min_cycle;Max_cycle;Signal;HPM_P1;HPM_P2
2022/05/24 00:00:20;;;;;;;14.60;9.18;;;;;;;;;;4407691;32;20018;-73
2022/05/24 00:02:45;;;;;;;14.63;9.52;;;;;;;;;;4392266;32;20424;-72
2022/05/24 00:05:11;;;;;;;23.30;9.18;;;;;;;;;;4393276;32;20056;-73
2022/05/24 00:07:37;;;;;;;17.52;9.02;;;;;;;;;;4406726;32;20076;-73
2022/05/24 00:10:03;;;;;;;15.60;8.23;;;;;;;;;;4405869;32;20070;-73
2022/05/24 00:12:28;;;;;;;12.90;8.95;;;;;;;;;;4407577;32;20042;-73
2022/05/24 00:17:37;;;;;;;15.48;9.57;;;;;;;;;;4407029;32;20137;-73
2022/05/24 00:20:03;;;;;;;18.73;8.65;;;;;;;;;;4407197;32;20023;-73
2022/05/24 00:22:28;;;;;;;16.87;8.20;;;;;;;;;;4406876;32;20075;-73
2022/05/24 00:24:55;;;;;;;21.92;9.90;;;;;;;;;;4407208;32;20018;-73
2022/05/24 00:27:20;;;;;;;21.85;8.55;;;;;;;;;;4405987;32;20130;-73
2022/05/24 00:29:46;;;;;;;18.02;8.23;;;;;;;;;;4405771;32;20079;-73
2022/05/24 00:32:11;;;;;;;18.33;8.73;;;;;;;;;;4407310;32;20053;-73
2022/05/24 00:34:36;;;;;;;30.70;11.53;;;;;;;;;;4405858;32;20429;-73
2022/05/24 00:37:01;;;;;;;25.60;16.50;;;;;;;;;;4406774;32;20195;-73
2022/05/24 00:39:26;;;;;;;35.42;17.75;;;;;;;;;;4395848;27;20088;-68
2022/05/24 00:42:07;;;;;;;30.20;19.73;;;;;;;;;;4374779;32;20032;-69
2022/05/24 00:44:38;;;;;;;45.55;21.40;;;;;;;;;;4361353;32;20031;-68
2022/05/24 00:47:05;;;;;;;40.78;19.90;;;;;;;;;;4375605;32;20022;-69
2022/05/24 00:49:52;;;;;;;29.05;19.73;;;;;;;;;;4376974;32;20053;-68
2022/05/24 00:52:18;;;;;;;33.78;19.80;;;;;;;;;;4375825;32;20030;-69
2022/05/24 00:54:44;;;;;;;26.67;18.95;;;;;;;;;;4374845;32;20023;-69
2022/05/24 00:57:22;;;;;;;34.92;19.12;;;;;;;;;;4376491;32;20030;-69
2022/05/24 00:59:53;;;;;;;35.10;19.52;;;;;;;;;;4376666;32;20027;-68
2022/05/24 01:02:18;;;;;;;25.98;18.42;;;;;;;;;;4362212;32;20022;-69
2022/05/24 01:04:43;;;;;;;30.48;18.45;;;;;;;;;;4373513;32;20024;-68
2022/05/24 01:07:09;;;;;;;32.25;18.45;;;;;;;;;;4361318;32;20119;-68
2022/05/24 01:10:03;;;;;;;33.05;17.45;;;;;;;;;;4375210;32;20073;-69
2022/05/24 01:12:32;;;;;;;27.52;15.07;;;;;;;;;;4364821;32;20081;-67
2022/05/24 01:14:58;;;;;;;26.73;13.55;;;;;;;;;;4374747;32;20101;-68
2022/05/24 01:17:23;;;;;;;20.58;11.88;;;;;;;;;;4375031;32;20050;-69
2022/05/24 01:19:49;;;;;;;25.35;10.43;;;;;;;;;;4377414;32;20062;-68
2022/05/24 01:22:17;;;;;;;25.52;10.15;;;;;;;;;;4377552;32;20400;-69
2022/05/24 01:24:50;;;;;;;22.65;9.38;;;;;;;;;;4377566;32;20333;-68
2022/05/24 01:27:15;;;;;;;20.73;8.98;;;;;;;;;;4379473;32;20454;-68
2022/05/24 01:29:40;;;;;;;16.48;8.65;;;;;;;;;;4379051;32;20031;-68
2022/05/24 01:37:34;;;;;;;17.85;8.32;;;;;;;;;;4378859;32;20137;-69
2022/05/24 01:40:02;;;;;;;21.55;9.27;;;;;;;;;;4378051;32;20348;-70
2022/05/24 01:42:27;;;;;;;21.65;9.30;;;;;;;;;;4364938;32;20352;-70
2022/05/24 01:45:13;;;;;;;19.33;7.78;;;;;;;;;;4377216;32;20050;-69
2022/05/24 01:47:39;;;;;;;23.08;10.40;;;;;;;;;;4371913;32;20031;-68
2022/05/24 01:50:08;;;;;;;24.55;11.70;;;;;;;;;;4379333;32;20062;-69
2022/05/24 01:52:38;;;;;;;23.12;10.10;;;;;;;;;;4351586;32;20043;-69
2022/05/24 01:55:06;;;;;;;21.30;11.43;;;;;;;;;;4377408;32;20035;-68
2022/05/24 01:57:34;;;;;;;25.15;10.73;;;;;;;;;;4378376;32;20420;-68
2022/05/24 02:00:01;;;;;;;25.42;11.18;;;;;;;;;;4376092;32;20130;-69
2022/05/24 02:02:27;;;;;;;17.65;9.52;;;;;;;;;;4377830;32;20054;-69
2022/05/24 02:04:52;;;;;;;20.33;10.68;;;;;;;;;;4363297;32;20047;-70
2022/05/24 02:07:17;;;;;;;;;;;;;;;;;;4375990;32;20027;-69
2022/05/24 02:09:44;;;;;;;22.45;10.23;;;;;;;;;;4376026;32;19973;-69
2022/05/24 02:12:16;;;;;;;19.58;10.07;;;;;;;;;;4377365;32;20066;-69
2022/05/24 02:14:44;;;;;;;20.75;11.12;;;;;;;;;;4375493;32;20098;-68
2022/05/24 02:17:18;;;;;;;24.15;11.70;;;;;;;;;;4377373;32;20074;-69
2022/05/24 02:19:46;;;;;;;22.70;11.18;;;;;;;;;;4375420;32;20069;-68
2022/05/24 02:22:14;;;;;;;21.48;11.63;;;;;;;;;;4379045;32;20047;-69
2022/05/24 02:24:39;;;;;;;23.35;12.20;;;;;;;;;;4363018;32;20027;-70
2022/05/24 02:27:05;;;;;;;24.52;11.32;;;;;;;;;;4375455;32;20050;-69
2022/05/24 02:29:31;;;;;;;;;;;;;;;;;;4377461;32;20225;-68
2022/05/24 02:31:56;;;;;;;23.83;11.50;;;;;;;;;;4375142;32;19998;-68
2022/05/24 02:34:22;;;;;;;24.87;13.13;;;;;;;;;;4364421;32;20360;-68
2022/05/24 02:36:47;;;;;;;;;;;;;;;;;;4377944;32;20031;-69
2022/05/24 02:39:12;;;;;;;23.35;14.27;;;;;;;;;;4376488;32;19998;-68
2022/05/24 02:41:37;;;;;;;26.80;13.75;;;;;;;;;;4378562;32;20057;-68
2022/05/24 02:44:07;;;;;;;26.17;14.20;;;;;;;;;;4378080;32;20076;-68
2022/05/24 02:46:34;;;;;;;30.02;15.60;;;;;;;;;;4376780;32;20027;-68
2022/05/24 02:48:59;;;;;;;27.98;16.15;;;;;;;;;;4362736;32;20027;-68
2022/05/24 02:51:26;;;;;;;34.92;16.42;;;;;;;;;;4376241;32;20485;-68
2022/05/24 02:53:52;;;;;;;25.23;14.65;;;;;;;;;;4362603;32;20031;-68
2022/05/24 02:56:17;;;;;;;23.75;15.10;;;;;;;;;;4363847;32;20088;-68
2022/05/24 02:58:42;;;;;;;33.95;16.87;;;;;;;;;;4377399;32;20080;-68
2022/05/24 03:01:12;;;;;;;33.78;16.33;;;;;;;;;;4376056;32;20341;-68
2022/05/24 03:03:37;;;;;;;29.42;15.43;;;;;;;;;;4376353;32;20057;-68
2022/05/24 03:06:02;;;;;;;31.73;15.27;;;;;;;;;;4374887;32;20031;-69
2022/05/24 03:11:11;;;;;;;33.92;17.25;;;;;;;;;;4376217;32;20113;-68
2022/05/24 03:16:20;;;;;;;32.90;16.45;;;;;;;;;;4377832;32;20502;-69
2022/05/24 03:18:46;;;;;;;25.73;14.95;;;;;;;;;;4377377;32;20043;-68
2022/05/24 03:21:11;;;;;;;24.52;15.70;;;;;;;;;;4376131;32;20061;-69
2022/05/24 03:23:36;;;;;;;34.38;17.40;;;;;;;;;;4377254;32;20031;-68
2022/05/24 03:26:02;;;;;;;26.52;16.70;;;;;;;;;;4375047;32;20364;-68
2022/05/24 03:28:27;;;;;;;;;;;;;;;;;;4374723;32;20023;-70
2022/05/24 03:30:52;;;;;;;27.45;15.95;;;;;;;;;;4374556;32;19945;-68
2022/05/24 03:33:17;;;;;;;25.75;15.93;;;;;;;;;;4362530;32;20054;-69
2022/05/24 03:35:42;;;;;;;23.65;15.25;;;;;;;;;;4376344;32;20035;-68
2022/05/24 03:38:08;;;;;;;;;;;;;;;;;;4376577;32;20204;-68
2022/05/24 03:40:33;;;;;;;32.97;14.55;;;;;;;;;;4374311;32;19938;-68
2022/05/24 03:42:58;;;;;;;26.27;14.93;;;;;;;;;;4375721;32;20128;-69
2022/05/24 03:45:24;;;;;;;28.77;15.88;;;;;;;;;;4362241;32;20031;-69
2022/05/24 03:47:49;;;;;;;34.33;15.93;;;;;;;;;;4377452;32;20070;-69
2022/05/24 03:50:14;;;;;;;22.95;14.38;;;;;;;;;;4376428;32;20023;-69
2022/05/24 03:52:40;;;;;;;23.80;14.95;;;;;;;;;;4375308;32;20027;-68
2022/05/24 03:55:05;;;;;;;22.20;15.20;;;;;;;;;;4376939;32;20080;-69
2022/05/24 04:00:16;;;;;;;30.30;15.25;;;;;;;;;;4375879;32;20089;-68
2022/05/24 04:02:41;;;;;;;23.90;15.57;;;;;;;;;;4362522;32;20023;-68
2022/05/24 04:05:07;;;;;;;24.52;14.80;;;;;;;;;;4361607;32;20345;-68
2022/05/24 04:07:33;;;;;;;27.20;15.15;;;;;;;;;;4376786;32;20467;-68
2022/05/24 04:09:58;;;;;;;26.12;15.90;;;;;;;;;;4373604;32;20031;-69
2022/05/24 04:12:23;;;;;;;;;;;;;;;;;;4377554;32;20042;-68
2022/05/24 04:14:48;;;;;;;28.42;15.60;;;;;;;;;;4376752;32;20021;-68
2022/05/24 04:17:13;;;;;;;28.87;15.63;;;;;;;;;;4361282;32;20056;-69
2022/05/24 04:19:38;;;;;;;35.45;15.65;;;;;;;;;;4375036;32;20144;-69
2022/05/24 04:22:04;;;;;;;24.90;12.85;;;;;;;;;;4375406;32;20058;-69
2022/05/24 04:24:29;;;;;;;24.23;12.00;;;;;;;;;;4375643;32;20028;-69
2022/05/24 04:26:54;;;;;;;;;;;;;;;;;;4376845;32;20086;-69
2022/05/24 04:29:19;;;;;;;19.67;11.18;;;;;;;;;;4374716;32;19970;-68
2022/05/24 04:31:45;;;;;;;17.30;8.93;;;;;;;;;;4372746;32;20030;-68
2022/05/24 04:34:10;;;;;;;16.77;7.90;;;;;;;;;;4368465;32;20349;-69
2022/05/24 04:36:35;;;;;;;19.27;8.00;;;;;;;;;;4381559;32;20069;-68
2022/05/24 04:39:00;;;;;;;23.23;7.07;;;;;;;;;;4373839;32;20039;-68
2022/05/24 04:44:09;;;;;;;21.70;7.97;;;;;;;;;;4376841;32;20393;-68
2022/05/24 04:49:19;;;;;;;19.50;7.97;;;;;;;;;;4375856;32;20185;-68
2022/05/24 04:51:44;;;;;;;18.67;8.20;;;;;;;;;;4375151;32;20027;-68
2022/05/24 04:54:09;;;;;;;14.18;7.90;;;;;;;;;;4375460;32;20027;-68
2022/05/24 04:56:35;;;;;;;18.58;8.23;;;;;;;;;;4365499;32;20023;-68
2022/05/24 04:59:00;;;;;;;;;;;;;;;;;;4378001;32;20119;-69
2022/05/24 05:01:25;;;;;;;18.80;8.13;;;;;;;;;;4364269;32;19938;-69
2022/05/24 05:03:50;;;;;;;17.92;9.48;;;;;;;;;;4377213;32;20117;-69
2022/05/24 05:06:15;;;;;;;23.83;7.90;;;;;;;;;;4377631;32;20074;-69
2022/05/24 05:08:40;;;;;;;;;;;;;;;;;;4377504;32;20190;-70
2022/05/24 05:11:06;;;;;;;20.12;8.02;;;;;;;;;;4377173;32;19972;-69
2022/05/24 05:13:31;;;;;;;15.77;6.93;;;;;;;;;;4377161;32;20023;-69
2022/05/24 05:15:56;;;;;;;21.73;7.73;;;;;;;;;;4376057;32;20376;-68
2022/05/24 05:18:24;;;;;;;;;;;;;;;;;;4362316;32;20123;-69
2022/05/24 05:20:49;;;;;;;;;;;;;;;;;;4370861;32;19998;-70
2022/05/24 05:23:16;;;;;;;20.80;8.90;;;;;;;;;;4363767;32;20362;-69
2022/05/24 05:25:42;;;;;;;18.05;8.85;;;;;;;;;;4371774;32;20069;-69
2022/05/24 05:28:07;;;;;;;17.90;8.35;;;;;;;;;;4375202;32;20395;-68
2022/05/24 05:33:16;;;;;;;19.70;7.90;;;;;;;;;;4366905;32;20130;-70
2022/05/24 05:35:45;;;;;;;19.45;6.90;;;;;;;;;;4372939;32;20425;-69
2022/05/24 05:38:11;;;;;;;20.45;6.72;;;;;;;;;;4370581;32;20047;-68
2022/05/24 05:40:37;;;;;;;13.25;6.18;;;;;;;;;;4368690;32;20027;-68
2022/05/24 05:43:02;;;;;;;;;;;;;;;;;;4365907;32;20061;-68
2022/05/24 05:45:27;;;;;;;13.55;5.78;;;;;;;;;;4361273;32;20013;-69
2022/05/24 05:47:53;;;;;;;19.75;8.98;;;;;;;;;;4374487;32;20102;-69
2022/05/24 05:50:20;;;;;;;16.33;7.30;;;;;;;;;;4377222;32;20031;-68
2022/05/24 05:52:45;;;;;;;16.62;7.57;;;;;;;;;;4362335;32;20052;-69
2022/05/24 05:55:10;;;;;;;13.75;6.62;;;;;;;;;;4376320;32;20365;-70
2022/05/24 05:57:36;;;;;;;15.15;8.48;;;;;;;;;;4377520;32;20470;-69
2022/05/24 06:00:01;;;;;;;;;;;;;;;;;;4377031;32;20384;-69
2022/05/24 06:02:26;;;;;;;17.10;7.97;;;;;;;;;;4377295;32;19969;-69
2022/05/24 06:04:51;;;;;;;16.00;7.20;;;;;;;;;;4375880;32;20053;-69
2022/05/24 06:07:16;;;;;;;19.97;8.83;;;;;;;;;;4374979;32;20061;-69
2022/05/24 06:09:41;;;;;;;25.12;9.07;;;;;;;;;;4361757;32;20123;-69
2022/05/24 06:12:07;;;;;;;17.37;8.07;;;;;;;;;;4361959;32;20053;-69
2022/05/24 06:14:32;;;;;;;18.30;8.05;;;;;;;;;;4348819;33;20035;-69
2022/05/24 06:16:57;;;;;;;32.78;9.30;;;;;;;;;;4362184;32;20024;-68
2022/05/24 06:19:22;;;;;;;13.02;8.23;;;;;;;;;;4361418;33;20023;-68
2022/05/24 06:21:48;;;;;;;11.55;8.18;;;;;;;;;;4361621;32;20077;-68
2022/05/24 06:24:14;;;;;;;11.12;7.15;;;;;;;;;;4361458;32;20039;-69
2022/05/24 06:26:39;;;;;;;14.05;8.52;;;;;;;;;;4362105;32;20459;-69
2022/05/24 06:29:05;;;;;;;14.80;7.72;;;;;;;;;;4361859;32;20047;-68
2022/05/24 06:31:30;;;;;;;18.00;9.45;;;;;;;;;;4361823;32;20051;-69
2022/05/24 06:33:56;;;;;;;16.00;7.43;;;;;;;;;;4360934;32;20405;-68
2022/05/24 06:36:21;;;;;;;16.42;7.18;;;;;;;;;;4361442;32;20023;-69
2022/05/24 06:38:46;;;;;;;15.10;7.80;;;;;;;;;;4372096;32;20066;-68
2022/05/24 06:41:11;;;;;;;13.18;7.28;;;;;;;;;;4376112;32;20053;-68
2022/05/24 06:43:36;;;;;;;16.33;6.00;;;;;;;;;;4376531;32;20361;-68
2022/05/24 06:46:09;;;;;;;13.05;6.15;;;;;;;;;;4374016;32;20027;-68
2022/05/24 06:48:38;;;;;;;7.50;5.10;;;;;;;;;;4376376;32;20054;-69
2022/05/24 06:51:08;;;;;;;13.18;5.10;;;;;;;;;;4375084;32;20018;-69
2022/05/24 06:53:34;;;;;;;12.40;5.80;;;;;;;;;;4375467;32;20019;-69
2022/05/24 06:55:59;;;;;;;10.45;4.90;;;;;;;;;;4376160;32;20142;-70
2022/05/24 06:58:24;;;;;;;11.18;4.93;;;;;;;;;;4377234;32;20058;-69
2022/05/24 07:03:34;;;;;;;10.73;4.60;;;;;;;;;;4376559;32;20046;-70
2022/05/24 07:05:59;;;;;;;7.35;4.30;;;;;;;;;;4376065;32;20102;-69
2022/05/24 07:08:24;;;;;;;9.27;4.23;;;;;;;;;;4366241;32;20027;-68
2022/05/24 07:10:49;;;;;;;6.97;4.00;;;;;;;;;;4361188;32;20154;-68
2022/05/24 07:13:16;;;;;;;10.55;4.65;;;;;;;;;;4361385;32;20547;-69
2022/05/24 07:15:41;;;;;;;10.50;4.18;;;;;;;;;;4360455;32;20023;-69
2022/05/24 07:18:06;;;;;;;10.15;4.93;;;;;;;;;;4359589;32;20410;-70
2022/05/24 07:20:33;;;;;;;9.00;4.82;;;;;;;;;;4360507;32;20049;-68
2022/05/24 07:23:18;;;;;;;11.30;5.68;;;;;;;;;;4360905;32;20031;-68
2022/05/24 07:25:44;;;;;;;11.73;5.07;;;;;;;;;;4360760;33;20054;-68
2022/05/24 07:28:10;;;;;;;8.48;5.30;;;;;;;;;;4360402;33;20060;-69
2022/05/24 07:30:36;;;;;;;8.15;4.57;;;;;;;;;;4361583;32;20031;-68
2022/05/24 07:33:01;;;;;;;8.63;4.30;;;;;;;;;;4361145;32;20023;-69
2022/05/24 07:35:26;;;;;;;15.70;4.32;;;;;;;;;;4360775;32;20070;-70
2022/05/24 07:37:52;;;;;;;7.35;3.35;;;;;;;;;;4368779;32;20105;-68
2022/05/24 07:45:48;;;;;;;7.12;3.22;;;;;;;;;;4368713;32;20069;-70
2022/05/24 07:48:13;;;;;;;7.93;3.83;;;;;;;;;;4367359;32;20039;-70
2022/05/24 07:50:39;;;;;;;10.45;3.33;;;;;;;;;;4365136;32;20074;-69
2022/05/24 07:53:04;;;;;;;;;;;;;;;;;;4359819;32;20027;-69
2022/05/24 07:55:30;;;;;;;9.10;3.75;;;;;;;;;;4366041;32;20304;-69
2022/05/24 07:57:55;;;;;;;3.78;2.92;;;;;;;;;;4367038;32;20088;-70
2022/05/24 08:00:21;;;;;;;6.65;3.85;;;;;;;;;;4368255;32;20063;-70
2022/05/24 08:02:46;;;;;;;;;;;;;;;;;;4367301;32;20034;-69
2022/05/24 08:05:11;;;;;;;3.47;2.92;;;;;;;;;;4365812;32;19988;-68
2022/05/24 08:07:37;;;;;;;8.10;3.53;;;;;;;;;;4368358;32;20088;-69
2022/05/24 08:10:03;;;;;;;5.37;3.15;;;;;;;;;;4367140;32;20057;-69
2022/05/24 08:12:28;;;;;;;4.97;3.25;;;;;;;;;;4358327;32;20424;-70
2022/05/24 08:14:53;;;;;;;5.32;2.75;;;;;;;;;;4367510;32;20027;-69
2022/05/24 08:17:19;;;;;;;6.70;2.35;;;;;;;;;;4368206;32;20074;-69
2022/05/24 08:19:44;;;;;;;4.95;1.95;;;;;;;;;;4368111;32;20114;-69
2022/05/24 08:22:09;;;;;;;7.85;1.92;;;;;;;;;;4366829;32;20438;-69
2022/05/24 08:24:34;;;;;;;2.97;1.70;;;;;;;;;;4366313;32;20039;-69
2022/05/24 08:27:00;;;;;;;4.70;1.77;;;;;;;;;;4366422;32;20031;-69
2022/05/24 08:29:25;;;;;;;3.47;1.55;;;;;;;;;;4372948;32;20031;-69
2022/05/24 08:31:50;;;;;;;5.15;2.00;;;;;;;;;;4355874;32;20614;-72
2022/05/24 08:34:15;;;;;;;4.78;1.37;;;;;;;;;;4368543;32;20058;-71
2022/05/24 08:36:41;;;;;;;3.20;1.48;;;;;;;;;;4365054;32;20505;-72
2022/05/24 08:39:06;;;;;;;4.43;1.30;;;;;;;;;;4368952;32;20070;-70
2022/05/24 08:41:31;;;;;;;;;;;;;;;;;;4366334;32;20422;-71
2022/05/24 08:43:56;;;;;;;4.05;1.27;;;;;;;;;;4366938;32;20005;-71
2022/05/24 08:49:13;;;;;;;5.47;1.73;;;;;;;;;;4365457;32;20119;-71
2022/05/24 08:51:47;;;;;;;2.10;1.52;;;;;;;;;;4353934;32;20064;-71
2022/05/24 08:54:15;;;;;;;5.57;1.73;;;;;;;;;;4365196;32;20345;-71
2022/05/24 08:56:43;;;;;;;6.32;2.00;;;;;;;;;;4366692;32;20093;-73
2022/05/24 08:59:15;;;;;;;4.72;2.42;;;;;;;;;;4367227;32;20092;-70
2022/05/24 09:01:41;;;;;;;6.30;2.40;;;;;;;;;;4366460;32;20047;-71
2022/05/24 09:04:08;;;;;;;4.80;2.65;;;;;;;;;;4368294;32;20109;-70
2022/05/24 09:06:51;;;;;;;5.00;2.42;;;;;;;;;;4365864;32;20042;-69
2022/05/24 09:09:39;;;;;;;4.68;2.92;;;;;;;;;;4364307;32;20034;-69
2022/05/24 09:12:23;;;;;;;5.18;2.90;;;;;;;;;;4365348;32;20425;-70
2022/05/24 09:14:51;;;;;;;4.25;2.80;;;;;;;;;;4367133;32;20046;-71
2022/05/24 09:17:19;;;;;;;8.02;3.05;;;;;;;;;;4365822;32;20048;-69
2022/05/24 09:19:44;;;;;;;5.57;2.87;;;;;;;;;;4365899;32;20372;-71
2022/05/24 09:22:11;;;;;;;8.00;2.55;;;;;;;;;;4366869;32;20089;-69
2022/05/24 09:24:58;;;;;;;5.57;2.10;;;;;;;;;;4365655;32;20175;-69
2022/05/24 09:27:25;;;;;;;5.87;2.42;;;;;;;;;;4367136;32;20124;-69
2022/05/24 09:29:52;;;;;;;3.10;1.83;;;;;;;;;;4365221;32;20034;-69
2022/05/24 09:32:18;;;;;;;5.28;1.83;;;;;;;;;;4365163;32;20052;-70
2022/05/24 09:34:43;;;;;;;3.97;1.50;;;;;;;;;;4365045;32;20059;-69
2022/05/24 09:37:24;;;;;;;4.32;2.37;;;;;;;;;;4366391;32;20138;-69
2022/05/24 09:40:00;;;;;;;4.20;1.70;;;;;;;;;;4356357;32;20149;-69
2022/05/24 09:42:30;;;;;;;4.95;2.20;;;;;;;;;;4368317;32;20121;-69
2022/05/24 09:45:06;;;;;;;4.80;1.83;;;;;;;;;;4369886;32;20031;-68
2022/05/24 09:47:33;;;;;;;5.40;2.10;;;;;;;;;;4370094;32;20061;-69
2022/05/24 09:50:14;;;;;;;7.53;2.65;;;;;;;;;;4358496;32;20027;-68
2022/05/24 09:52:39;;;;;;;5.93;2.35;;;;;;;;;;4370417;32;20073;-68
2022/05/24 09:55:04;;;;;;;;;;;;;;;;;;4370708;32;20094;-69
2022/05/24 09:57:32;;;;;;;5.12;2.60;;;;;;;;;;4369576;32;20275;-69
2022/05/24 10:00:14;;;;;;;6.10;3.05;;;;;;;;;;4358319;32;20065;-68
2022/05/24 10:02:39;;;;;;;9.48;2.95;;;;;;;;;;4357574;32;20056;-68
2022/05/24 10:05:22;;;;;;;8.70;2.80;;;;;;;;;;4359692;32;20448;-68
2022/05/24 10:08:14;;;;;;;7.70;3.25;;;;;;;;;;4371890;32;20042;-69
2022/05/24 10:10:40;;;;;;;6.15;2.90;;;;;;;;;;4367038;32;20436;-68
2022/05/24 10:13:14;;;;;;;8.55;3.53;;;;;;;;;;4372996;32;20342;-68
2022/05/24 10:15:49;;;;;;;9.85;3.42;;;;;;;;;;4372714;32;20125;-68
2022/05/24 10:18:17;;;;;;;9.88;2.67;;;;;;;;;;4372616;32;20372;-68
2022/05/24 10:20:57;;;;;;;5.85;2.78;;;;;;;;;;4377057;32;20061;-68
2022/05/24 10:23:41;;;;;;;16.85;3.00;;;;;;;;;;4369474;32;20055;-68
2022/05/24 10:26:13;;;;;;;7.95;3.00;;;;;;;;;;4368283;32;20493;-69
2022/05/24 10:28:45;;;;;;;5.78;2.70;;;;;;;;;;4376980;32;20527;-71
2022/05/24 10:31:31;;;;;;;7.10;2.85;;;;;;;;;;4372314;32;20091;-68
2022/05/24 10:39:43;;;;;;;8.60;2.78;;;;;;;;;;4376500;32;20089;-68
2022/05/24 10:42:11;;;;;;;7.40;2.25;;;;;;;;;;4360135;32;20089;-68
2022/05/24 10:44:42;;;;;;;7.65;2.03;;;;;;;;;;4376556;32;20118;-68
2022/05/24 10:47:21;;;;;;;6.05;2.42;;;;;;;;;;4376126;32;20038;-69
2022/05/24 10:49:48;;;;;;;6.28;2.60;;;;;;;;;;4371132;32;20035;-68
2022/05/24 10:52:22;;;;;;;6.65;2.97;;;;;;;;;;4369075;32;20468;-69
2022/05/24 10:55:06;;;;;;;6.85;2.08;;;;;;;;;;4370119;32;20074;-68
2022/05/24 10:57:37;;;;;;;4.10;2.08;;;;;;;;;;4371402;32;20039;-68
2022/05/24 11:00:05;;;;;;;3.87;1.70;;;;;;;;;;4374060;32;20127;-68
2022/05/24 11:02:34;;;;;;;5.37;2.45;;;;;;;;;;4375011;32;20031;-69
2022/05/24 11:05:08;;;;;;;5.47;1.70;;;;;;;;;;4372607;32;20082;-68
2022/05/24 11:07:35;;;;;;;5.28;2.10;;;;;;;;;;4367648;32;20392;-69
2022/05/24 11:10:12;;;;;;;5.32;1.83;;;;;;;;;;4360596;32;20120;-68
2022/05/24 11:12:47;;;;;;;8.23;2.15;;;;;;;;;;4361538;32;20057;-68
2022/05/24 11:15:17;;;;;;;4.82;1.83;;;;;;;;;;4373784;32;20051;-69
2022/05/24 11:17:42;;;;;;;5.18;2.37;;;;;;;;;;4374802;32;20400;-70
2022/05/24 11:20:08;;;;;;;6.40;1.70;;;;;;;;;;4375512;32;20086;-69
2022/05/24 11:22:41;;;;;;;3.67;1.65;;;;;;;;;;4377314;32;20028;-69
2022/05/24 11:25:06;;;;;;;4.80;2.10;;;;;;;;;;4375255;32;20065;-69
2022/05/24 11:27:36;;;;;;;6.97;1.80;;;;;;;;;;4376186;32;20028;-69
2022/05/24 11:30:11;;;;;;;7.53;2.10;;;;;;;;;;4375861;32;20088;-68
2022/05/24 11:33:02;;;;;;;3.47;1.80;;;;;;;;;;4374919;32;20026;-68
2022/05/24 11:35:29;;;;;;;3.78;1.90;;;;;;;;;;4374115;32;20027;-68
2022/05/24 11:37:56;;;;;;;9.68;2.20;;;;;;;;;;4362371;32;20110;-67
2022/05/24 11:40:24;;;;;;;8.20;2.15;;;;;;;;;;4376374;32;20106;-68
2022/05/24 11:42:49;;;;;;;3.62;2.30;;;;;;;;;;4375649;32;20464;-68
2022/05/24 11:45:31;;;;;;;7.05;1.95;;;;;;;;;;4375758;32;20085;-68
2022/05/24 11:47:56;;;;;;;5.47;1.80;;;;;;;;;;4375901;32;20028;-68
2022/05/24 11:50:42;;;;;;;6.00;1.37;;;;;;;;;;4375595;32;20050;-68
2022/05/24 11:53:07;;;;;;;3.10;1.77;;;;;;;;;;4369778;32;20447;-68
2022/05/24 11:55:40;;;;;;;5.85;2.00;;;;;;;;;;4375956;32;20031;-68
2022/05/24 11:58:20;;;;;;;3.97;1.33;;;;;;;;;;4375428;32;20126;-68
2022/05/24 12:00:59;;;;;;;2.45;1.35;;;;;;;;;;4375688;32;20076;-68
2022/05/24 12:09:09;;;;;;;2.33;1.33;;;;;;;;;;4361541;32;20049;-68
2022/05/24 12:11:36;;;;;;;2.72;1.33;;;;;;;;;;4360808;32;20027;-67
2022/05/24 12:14:25;;;;;;;4.72;1.25;;;;;;;;;;4361685;32;20027;-67
2022/05/24 12:16:53;;;;;;;3.58;1.27;;;;;;;;;;4357805;33;20416;-67
2022/05/24 12:19:42;;;;;;;2.40;0.90;;;;;;;;;;4361468;32;20031;-68
2022/05/24 12:22:08;;;;;;;2.47;0.80;;;;;;;;;;4361452;32;20031;-68
2022/05/24 12:24:43;;;;;;;5.18;1.10;;;;;;;;;;4361342;32;20097;-67
2022/05/24 12:27:14;;;;;;;3.58;1.12;;;;;;;;;;4361086;32;20027;-67
2022/05/24 12:29:43;;;;;;;1.70;0.98;;;;;;;;;;4360146;32;20425;-67
2022/05/24 12:32:08;;;;;;;5.97;1.25;;;;;;;;;;4358949;32;20062;-69
2022/05/24 12:34:33;;;;;;;2.17;1.27;;;;;;;;;;4359897;32;20023;-68
2022/05/24 12:37:02;;;;;;;3.08;1.02;;;;;;;;;;4366730;32;20121;-69
2022/05/24 12:39:27;;;;;;;1.15;1.00;;;;;;;;;;4373958;32;20147;-67
2022/05/24 12:41:58;;;;;;;3.90;1.83;;;;;;;;;;4374475;32;20360;-67
2022/05/24 12:44:25;;;;;;;2.45;0.80;;;;;;;;;;4374238;32;20297;-68
2022/05/24 12:46:55;;;;;;;6.15;1.30;;;;;;;;;;4361082;32;20443;-67
2022/05/24 12:49:22;;;;;;;3.08;1.25;;;;;;;;;;4374612;32;20084;-68
2022/05/24 12:51:47;;;;;;;3.65;1.52;;;;;;;;;;4373281;32;20053;-68
2022/05/24 12:54:26;;;;;;;5.10;1.48;;;;;;;;;;4361378;32;20024;-68
2022/05/24 12:56:55;;;;;;;1.77;1.00;;;;;;;;;;4375714;32;20045;-68
2022/05/24 12:59:27;;;;;;;1.52;0.98;;;;;;;;;;4375901;32;20070;-67
2022/05/24 13:01:54;;;;;;;4.20;1.25;;;;;;;;;;4360841;32;20035;-67
2022/05/24 13:04:20;;;;;;;3.72;1.35;;;;;;;;;;4374854;32;20348;-68
2022/05/24 13:06:46;;;;;;;4.32;1.17;;;;;;;;;;4356543;33;20051;-69
2022/05/24 13:09:18;;;;;;;2.78;1.05;;;;;;;;;;4360683;33;20036;-69
2022/05/24 13:11:44;;;;;;;2.87;1.30;;;;;;;;;;4346056;33;20047;-67
2022/05/24 13:14:13;;;;;;;2.15;1.08;;;;;;;;;;4371111;32;20027;-68
2022/05/24 13:16:39;;;;;;;4.20;1.23;;;;;;;;;;4376092;32;20061;-67
2022/05/24 13:19:04;;;;;;;1.67;1.05;;;;;;;;;;4378433;32;20031;-68
2022/05/24 13:21:31;;;;;;;2.08;1.15;;;;;;;;;;4377222;32;20070;-68
2022/05/24 13:24:29;;;;;;;1.83;0.82;;;;;;;;;;4377505;32;20031;-68
2022/05/24 13:26:58;;;;;;;5.03;1.12;;;;;;;;;;4371171;32;20032;-68
2022/05/24 13:29:24;;;;;;;2.15;1.52;;;;;;;;;;4363040;32;20094;-68
2022/05/24 13:34:34;;;;;;;6.25;1.77;;;;;;;;;;4378357;32;20061;-69
2022/05/24 13:36:59;;;;;;;2.00;1.33;;;;;;;;;;4367062;32;20082;-69
2022/05/24 13:39:43;;;;;;;2.62;1.30;;;;;;;;;;4358527;32;20056;-68
2022/05/24 13:42:11;;;;;;;2.03;1.00;;;;;;;;;;4362197;32;20027;-67
2022/05/24 13:44:38;;;;;;;1.23;0.88;;;;;;;;;;4362894;32;20143;-68
2022/05/24 13:47:05;;;;;;;2.12;1.10;;;;;;;;;;4361011;32;20067;-68
2022/05/24 13:49:44;;;;;;;4.97;1.25;;;;;;;;;;4362653;32;20054;-67
2022/05/24 13:52:28;;;;;;;4.25;1.48;;;;;;;;;;4363016;32;20074;-68
2022/05/24 13:55:13;;;;;;;1.83;0.82;;;;;;;;;;4362918;32;20077;-68
2022/05/24 13:57:52;;;;;;;2.95;1.30;;;;;;;;;;4355957;33;20039;-67
2022/05/24 14:00:28;;;;;;;4.12;0.88;;;;;;;;;;4362175;32;20425;-67
2022/05/24 14:03:16;;;;;;;1.12;0.77;;;;;;;;;;4361527;32;20417;-67
2022/05/24 14:05:41;;;;;;;1.55;0.82;;;;;;;;;;4358591;32;20031;-68
2022/05/24 14:08:07;;;;;;;4.00;1.10;;;;;;;;;;4378143;32;20047;-68
2022/05/24 14:10:33;;;;;;;2.08;0.90;;;;;;;;;;4363159;32;20046;-69
2022/05/24 14:12:58;;;;;;;1.98;0.80;;;;;;;;;;4377624;32;20062;-69
2022/05/24 14:15:23;;;;;;;2.47;0.98;;;;;;;;;;4378058;32;20026;-69
2022/05/24 14:17:50;;;;;;;4.57;1.25;;;;;;;;;;4377312;32;20408;-68
2022/05/24 14:20:16;;;;;;;3.58;1.20;;;;;;;;;;4377117;32;20401;-68
2022/05/24 14:22:41;;;;;;;2.87;1.12;;;;;;;;;;4366188;32;20062;-68
2022/05/24 14:25:08;;;;;;;1.60;1.05;;;;;;;;;;4361683;32;20334;-68
2022/05/24 14:27:34;;;;;;;3.25;1.20;;;;;;;;;;4360736;32;20456;-67
2022/05/24 14:29:59;;;;;;;1.77;0.90;;;;;;;;;;4347799;33;20038;-67
2022/05/24 14:32:25;;;;;;;2.47;1.00;;;;;;;;;;4363159;32;20061;-67
2022/05/24 14:34:50;;;;;;;3.97;1.27;;;;;;;;;;4361590;32;20104;-67
2022/05/24 14:37:16;;;;;;;3.40;1.00;;;;;;;;;;4371423;32;20027;-67
2022/05/24 14:39:41;;;;;;;3.42;1.42;;;;;;;;;;4362179;32;20097;-68
2022/05/24 14:42:06;;;;;;;2.87;0.93;;;;;;;;;;4376644;32;20368;-68
2022/05/24 14:44:34;;;;;;;2.15;1.10;;;;;;;;;;4376695;32;20023;-68
2022/05/24 14:47:01;;;;;;;2.95;1.12;;;;;;;;;;4376570;32;20145;-68
2022/05/24 14:49:27;;;;;;;2.97;1.70;;;;;;;;;;4363257;32;20023;-68
2022/05/24 14:51:54;;;;;;;2.33;1.27;;;;;;;;;;4362063;32;20498;-67
2022/05/24 14:54:20;;;;;;;2.05;1.12;;;;;;;;;;4377211;32;20035;-69
2022/05/24 14:56:46;;;;;;;1.52;0.88;;;;;;;;;;4377552;32;20065;-67
2022/05/24 14:59:11;;;;;;;2.03;1.08;;;;;;;;;;4361137;32;20118;-68
2022/05/24 15:01:37;;;;;;;2.67;1.08;;;;;;;;;;4376255;32;20019;-69
2022/05/24 15:04:03;;;;;;;1.83;0.90;;;;;;;;;;4359368;32;20028;-67
2022/05/24 15:06:28;;;;;;;1.62;1.02;;;;;;;;;;4353031;32;20031;-68
2022/05/24 15:17:06;;;;;;;3.50;1.10;;;;;;;;;;4375931;32;22317;-68
2022/05/24 15:19:31;;;;;;;3.50;1.20;;;;;;;;;;4376369;32;20023;-68
2022/05/24 15:21:58;;;;;;;1.50;0.90;;;;;;;;;;4377141;32;20023;-67
2022/05/24 15:24:26;;;;;;;1.33;0.98;;;;;;;;;;4362602;32;20123;-68
2022/05/24 15:26:54;;;;;;;3.12;1.17;;;;;;;;;;4375572;32;20426;-68
2022/05/24 15:29:19;;;;;;;3.25;1.15;;;;;;;;;;4373911;32;20058;-68
2022/05/24 15:31:45;;;;;;;4.35;1.15;;;;;;;;;;4367405;32;20051;-69
2022/05/24 15:34:11;;;;;;;3.28;1.08;;;;;;;;;;4373519;32;20031;-68
2022/05/24 15:36:36;;;;;;;3.35;1.02;;;;;;;;;;4368281;32;20062;-69
2022/05/24 15:39:02;;;;;;;5.03;1.30;;;;;;;;;;4374279;32;20109;-68
2022/05/24 15:41:27;;;;;;;2.05;1.35;;;;;;;;;;4365160;32;20032;-68